Terminal Aerodrome Forecast
Issued by NWS

Home | Current Version | Previous Version | Text Only | Print | Product List | Glossary On
Versions: 1 2 3 4 5 6 7 8 9 10 11 12 13 14 15 16 17 18 19 20 21 22 23 24 25 26 27 28 29 30 31 32 33
000
FTUS43 KLOT 201900 AAB
TAFORD
TAF AMD
KORD 201959Z 2020/2124 24012G18KT P6SM -SHRA SCT040 BKN080 OVC100
     FM202030 25012G18KT P6SM -SHRA VCTS FEW025 BKN050CB OVC080
      TEMPO 2021/2022 5SM -TSRA SCT025 BKN040CB
     FM202300 27010KT P6SM SCT040 BKN070
     FM210800 29012G17KT P6SM FEW030
     FM211700 33015G24KT P6SM VCSH BKN030
     FM212200 36012G20KT P6SM BKN035=

USA.gov is the U.S. government's official web portal to all federal, state and local government web resources and services.